BOX108 EDDF-EGNX
Flight info
| Callsign | BOX108 |
|---|---|
| Flight time | 1h 5m |
| Altitude | 34000 |
| Route | OBOKA5G/25C OBOKA Z29 TORNU DCT BATAK DCT GALSO Q63 ERING L179 LAM L610 HEMEL |
| Aircraft | B77L/H-SDE1E2E3FGHIJ2J3J4J5M1RWXY/LB1D1 |
Departure
| Time | 2026-05-04 19:50 |
|---|---|
| Airport | Frankfurt Main Airport (EDDF) |
Arrival
| Time | 2026-05-04 20:56 |
|---|---|
| Airport | East Midlands Airport (EGNX) |
| Time | Latitude | Longitude | Altitude | Speed | Heading |
|---|---|---|---|---|---|
| 2026-05-04 19:20 | 50.04003 | 8.54542 | 352 ft | 0 kts | 250° |
| 2026-05-04 19:35 | 50.04007 | 8.54562 | 352 ft | 2 kts | 248° |
| 2026-05-04 19:35 | 50.04013 | 8.54583 | 352 ft | 2 kts | 250° |
| 2026-05-04 19:35 | 50.04016 | 8.54597 | 352 ft | 2 kts | 248° |
| 2026-05-04 19:35 | 50.04024 | 8.54617 | 352 ft | 2 kts | 225° |
| 2026-05-04 19:36 | 50.04036 | 8.54631 | 352 ft | 2 kts | 208° |
| 2026-05-04 19:36 | 50.04049 | 8.54640 | 353 ft | 2 kts | 191° |
| 2026-05-04 19:36 | 50.04064 | 8.54641 | 353 ft | 2 kts | 174° |
| 2026-05-04 19:36 | 50.04075 | 8.54638 | 353 ft | 0 kts | 160° |
| 2026-05-04 19:37 | 50.04079 | 8.54636 | 353 ft | 0 kts | 159° |
| 2026-05-04 19:40 | 50.04064 | 8.54643 | 353 ft | 4 kts | 162° |
| 2026-05-04 19:40 | 50.04006 | 8.54673 | 352 ft | 11 kts | 162° |
| 2026-05-04 19:40 | 50.03942 | 8.54675 | 350 ft | 9 kts | 221° |
| 2026-05-04 19:40 | 50.03907 | 8.54551 | 350 ft | 14 kts | 253° |
| 2026-05-04 19:41 | 50.03869 | 8.54391 | 350 ft | 16 kts | 247° |
| 2026-05-04 19:41 | 50.03785 | 8.54346 | 347 ft | 4 kts | 160° |
| 2026-05-04 19:41 | 50.03780 | 8.54349 | 347 ft | 0 kts | 161° |
| 2026-05-04 19:42 | 50.03743 | 8.54369 | 346 ft | 10 kts | 160° |
| 2026-05-04 19:42 | 50.03697 | 8.54462 | 346 ft | 12 kts | 88° |
| 2026-05-04 19:42 | 50.03723 | 8.54587 | 346 ft | 12 kts | 70° |
| 2026-05-04 19:43 | 50.03756 | 8.54725 | 348 ft | 13 kts | 70° |
| 2026-05-04 19:43 | 50.03786 | 8.54852 | 350 ft | 10 kts | 70° |
| 2026-05-04 19:43 | 50.03814 | 8.54965 | 351 ft | 12 kts | 69° |
| 2026-05-04 19:43 | 50.03847 | 8.55106 | 354 ft | 14 kts | 70° |
| 2026-05-04 19:44 | 50.03884 | 8.55266 | 356 ft | 17 kts | 71° |
| 2026-05-04 19:44 | 50.03927 | 8.55439 | 356 ft | 16 kts | 69° |
| 2026-05-04 19:44 | 50.03970 | 8.55621 | 357 ft | 20 kts | 70° |
| 2026-05-04 19:44 | 50.04024 | 8.55847 | 356 ft | 22 kts | 70° |
| 2026-05-04 19:45 | 50.04074 | 8.56055 | 359 ft | 18 kts | 70° |
| 2026-05-04 19:45 | 50.04114 | 8.56225 | 362 ft | 15 kts | 69° |
| 2026-05-04 19:45 | 50.04147 | 8.56365 | 364 ft | 12 kts | 70° |
| 2026-05-04 19:45 | 50.04176 | 8.56486 | 365 ft | 10 kts | 70° |
| 2026-05-04 19:46 | 50.04200 | 8.56587 | 366 ft | 8 kts | 69° |
| 2026-05-04 19:46 | 50.04220 | 8.56668 | 367 ft | 7 kts | 70° |
| 2026-05-04 19:46 | 50.04240 | 8.56752 | 369 ft | 10 kts | 70° |
| 2026-05-04 19:46 | 50.04272 | 8.56887 | 373 ft | 14 kts | 70° |
| 2026-05-04 19:47 | 50.04304 | 8.57020 | 374 ft | 12 kts | 69° |
| 2026-05-04 19:47 | 50.04332 | 8.57136 | 374 ft | 10 kts | 70° |
| 2026-05-04 19:47 | 50.04361 | 8.57264 | 375 ft | 14 kts | 70° |
| 2026-05-04 19:47 | 50.04402 | 8.57427 | 374 ft | 18 kts | 70° |
| 2026-05-04 19:48 | 50.04432 | 8.57567 | 373 ft | 8 kts | 84° |
| 2026-05-04 19:48 | 50.04413 | 8.57642 | 373 ft | 5 kts | 143° |
| 2026-05-04 19:48 | 50.04400 | 8.57651 | 372 ft | 0 kts | 160° |
| 2026-05-04 19:48 | 50.04377 | 8.57664 | 372 ft | 7 kts | 160° |
| 2026-05-04 19:49 | 50.04314 | 8.57700 | 371 ft | 10 kts | 160° |
| 2026-05-04 19:49 | 50.04265 | 8.57667 | 370 ft | 9 kts | 259° |
| 2026-05-04 19:49 | 50.04258 | 8.57630 | 370 ft | 0 kts | 249° |
| 2026-05-04 19:49 | 50.04257 | 8.57624 | 370 ft | 6 kts | 249° |
| 2026-05-04 19:50 | 50.04159 | 8.57213 | 370 ft | 76 kts | 250° |
| 2026-05-04 19:50 | 50.03890 | 8.56095 | 354 ft | 143 kts | 249° |
| 2026-05-04 19:50 | 50.03498 | 8.54452 | 604 ft | 174 kts | 250° |
| 2026-05-04 19:50 | 50.03063 | 8.52678 | 1242 ft | 180 kts | 250° |
| 2026-05-04 19:51 | 50.02712 | 8.50864 | 1874 ft | 182 kts | 265° |
| 2026-05-04 19:51 | 50.02757 | 8.48811 | 2189 ft | 199 kts | 278° |
| 2026-05-04 19:51 | 50.02931 | 8.46599 | 2592 ft | 215 kts | 277° |
| 2026-05-04 19:51 | 50.02997 | 8.44208 | 3014 ft | 231 kts | 264° |
| 2026-05-04 19:52 | 50.02721 | 8.41665 | 3475 ft | 247 kts | 260° |
| 2026-05-04 19:52 | 50.02387 | 8.38962 | 4050 ft | 259 kts | 259° |
| 2026-05-04 19:52 | 50.02055 | 8.36230 | 4811 ft | 262 kts | 259° |
| 2026-05-04 19:52 | 50.01719 | 8.33432 | 5563 ft | 265 kts | 258° |
| 2026-05-04 19:53 | 50.01385 | 8.30626 | 6314 ft | 268 kts | 259° |
| 2026-05-04 19:53 | 50.01435 | 8.27730 | 6971 ft | 275 kts | 283° |
| 2026-05-04 19:53 | 50.02093 | 8.24956 | 7669 ft | 279 kts | 291° |
| 2026-05-04 19:53 | 50.02883 | 8.22238 | 8374 ft | 281 kts | 292° |
| 2026-05-04 19:54 | 50.03704 | 8.19453 | 9053 ft | 283 kts | 291° |
| 2026-05-04 19:54 | 50.04519 | 8.16665 | 9699 ft | 287 kts | 291° |
| 2026-05-04 19:54 | 50.05340 | 8.13843 | 10271 ft | 292 kts | 291° |
| 2026-05-04 19:54 | 50.06392 | 8.11017 | 10540 ft | 313 kts | 304° |
| 2026-05-04 19:55 | 50.07760 | 8.08320 | 10839 ft | 331 kts | 306° |
| 2026-05-04 19:55 | 50.09250 | 8.05464 | 11182 ft | 346 kts | 306° |
| 2026-05-04 19:55 | 50.10778 | 8.02516 | 11542 ft | 362 kts | 306° |
| 2026-05-04 19:55 | 50.12594 | 7.99664 | 11935 ft | 380 kts | 320° |
| 2026-05-04 19:56 | 50.14754 | 7.97262 | 12606 ft | 388 kts | 323° |
| 2026-05-04 19:56 | 50.16980 | 7.94879 | 13416 ft | 393 kts | 323° |
| 2026-05-04 19:56 | 50.19224 | 7.92478 | 14348 ft | 395 kts | 323° |
| 2026-05-04 19:56 | 50.21492 | 7.90049 | 15276 ft | 398 kts | 323° |
| 2026-05-04 19:57 | 50.23766 | 7.87609 | 16153 ft | 403 kts | 322° |
| 2026-05-04 19:57 | 50.26082 | 7.85122 | 16983 ft | 408 kts | 322° |
| 2026-05-04 19:57 | 50.28429 | 7.82597 | 17639 ft | 418 kts | 322° |
| 2026-05-04 19:57 | 50.30862 | 7.79976 | 18166 ft | 431 kts | 322° |
| 2026-05-04 19:58 | 50.33347 | 7.77297 | 18771 ft | 440 kts | 322° |
| 2026-05-04 19:58 | 50.35843 | 7.74606 | 19960 ft | 435 kts | 323° |
| 2026-05-04 19:58 | 50.38307 | 7.71947 | 21079 ft | 432 kts | 322° |
| 2026-05-04 19:58 | 50.40779 | 7.69272 | 21845 ft | 436 kts | 322° |
| 2026-05-04 19:59 | 50.43114 | 7.66256 | 22402 ft | 441 kts | 312° |
| 2026-05-04 19:59 | 50.45105 | 7.62610 | 23045 ft | 443 kts | 302° |
| 2026-05-04 19:59 | 50.46822 | 7.58629 | 23807 ft | 444 kts | 300° |
| 2026-05-04 19:59 | 50.48516 | 7.54580 | 24608 ft | 446 kts | 300° |
| 2026-05-04 20:00 | 50.50200 | 7.50542 | 25353 ft | 449 kts | 300° |
| 2026-05-04 20:00 | 50.51923 | 7.46414 | 25719 ft | 460 kts | 300° |
| 2026-05-04 20:00 | 50.53702 | 7.42167 | 25900 ft | 475 kts | 300° |
| 2026-05-04 20:00 | 50.55545 | 7.37764 | 25960 ft | 486 kts | 300° |
| 2026-05-04 20:01 | 50.57404 | 7.33325 | 25968 ft | 484 kts | 299° |
| 2026-05-04 20:01 | 50.59225 | 7.28968 | 25969 ft | 483 kts | 299° |
| 2026-05-04 20:01 | 50.61076 | 7.24530 | 26000 ft | 488 kts | 299° |
| 2026-05-04 20:01 | 50.62934 | 7.20066 | 26719 ft | 490 kts | 299° |
| 2026-05-04 20:02 | 50.64782 | 7.15625 | 27965 ft | 483 kts | 299° |
| 2026-05-04 20:02 | 50.66578 | 7.11300 | 29173 ft | 475 kts | 298° |
| 2026-05-04 20:02 | 50.68385 | 7.06937 | 30092 ft | 474 kts | 298° |
| 2026-05-04 20:02 | 50.70168 | 7.02624 | 30844 ft | 475 kts | 298° |
| 2026-05-04 20:03 | 50.71954 | 6.98296 | 31623 ft | 474 kts | 298° |
| 2026-05-04 20:03 | 50.73754 | 6.93928 | 32380 ft | 473 kts | 297° |
| 2026-05-04 20:03 | 50.75590 | 6.89464 | 32839 ft | 478 kts | 297° |
| 2026-05-04 20:03 | 50.77429 | 6.84981 | 33269 ft | 482 kts | 297° |
| 2026-05-04 20:04 | 50.79254 | 6.80526 | 33684 ft | 486 kts | 297° |
| 2026-05-04 20:04 | 50.81083 | 6.76058 | 33955 ft | 488 kts | 297° |
| 2026-05-04 20:04 | 50.82935 | 6.71525 | 33961 ft | 486 kts | 297° |
| 2026-05-04 20:05 | 50.86567 | 6.62616 | 33969 ft | 484 kts | 297° |
| 2026-05-04 20:05 | 50.90217 | 6.53627 | 33962 ft | 485 kts | 297° |
| 2026-05-04 20:06 | 50.93851 | 6.44648 | 33969 ft | 486 kts | 297° |
| 2026-05-04 20:06 | 50.97461 | 6.35698 | 33969 ft | 485 kts | 297° |
| 2026-05-04 20:07 | 51.01085 | 6.26681 | 33978 ft | 486 kts | 297° |
| 2026-05-04 20:07 | 51.04701 | 6.17652 | 33979 ft | 487 kts | 296° |
| 2026-05-04 20:08 | 51.08324 | 6.08574 | 33977 ft | 485 kts | 297° |
| 2026-05-04 20:08 | 51.11919 | 5.99533 | 33965 ft | 487 kts | 297° |
| 2026-05-04 20:09 | 51.15516 | 5.90458 | 33965 ft | 488 kts | 297° |
| 2026-05-04 20:09 | 51.19121 | 5.81310 | 33962 ft | 486 kts | 296° |
| 2026-05-04 20:10 | 51.22574 | 5.72166 | 33958 ft | 484 kts | 296° |
| 2026-05-04 20:10 | 51.26042 | 5.62929 | 33954 ft | 486 kts | 296° |
| 2026-05-04 20:11 | 51.29487 | 5.53737 | 33954 ft | 485 kts | 296° |
| 2026-05-04 20:11 | 51.32958 | 5.44444 | 33953 ft | 485 kts | 296° |
| 2026-05-04 20:12 | 51.36388 | 5.35233 | 33957 ft | 485 kts | 297° |
| 2026-05-04 20:12 | 51.39825 | 5.25971 | 33962 ft | 485 kts | 296° |
| 2026-05-04 20:13 | 51.43264 | 5.16674 | 33963 ft | 484 kts | 296° |
| 2026-05-04 20:13 | 51.46683 | 5.07394 | 33962 ft | 484 kts | 296° |
| 2026-05-04 20:14 | 51.50097 | 4.98096 | 33963 ft | 484 kts | 296° |
| 2026-05-04 20:14 | 51.53484 | 4.88837 | 33962 ft | 484 kts | 296° |
| 2026-05-04 20:15 | 51.56586 | 4.79356 | 33964 ft | 479 kts | 287° |
| 2026-05-04 20:15 | 51.58116 | 4.69030 | 33964 ft | 474 kts | 277° |
| 2026-05-04 20:16 | 51.59242 | 4.58620 | 33964 ft | 474 kts | 276° |
| 2026-05-04 20:16 | 51.60342 | 4.48233 | 33964 ft | 474 kts | 276° |
| 2026-05-04 20:17 | 51.61424 | 4.37890 | 33966 ft | 474 kts | 277° |
| 2026-05-04 20:17 | 51.62508 | 4.27392 | 33967 ft | 474 kts | 276° |
| 2026-05-04 20:18 | 51.63571 | 4.17002 | 33965 ft | 474 kts | 276° |
| 2026-05-04 20:18 | 51.64627 | 4.06582 | 33966 ft | 475 kts | 276° |
| 2026-05-04 20:19 | 51.65677 | 3.96108 | 33959 ft | 475 kts | 276° |
| 2026-05-04 20:19 | 51.66722 | 3.85593 | 33972 ft | 475 kts | 276° |
| 2026-05-04 20:20 | 51.67747 | 3.75178 | 33974 ft | 475 kts | 276° |
| 2026-05-04 20:20 | 51.68767 | 3.64711 | 33973 ft | 475 kts | 276° |
| 2026-05-04 20:21 | 51.69778 | 3.54235 | 33985 ft | 476 kts | 276° |
| 2026-05-04 20:21 | 51.71287 | 3.38407 | 33990 ft | 477 kts | 277° |
| 2026-05-04 20:22 | 51.72282 | 3.27849 | 33991 ft | 476 kts | 276° |
| 2026-05-04 20:22 | 51.73010 | 3.17350 | 33993 ft | 473 kts | 267° |
| 2026-05-04 20:23 | 51.72350 | 3.06882 | 34004 ft | 473 kts | 260° |
| 2026-05-04 20:23 | 51.71463 | 2.96406 | 34005 ft | 474 kts | 260° |
| 2026-05-04 20:24 | 51.70554 | 2.85896 | 34004 ft | 473 kts | 260° |
| 2026-05-04 20:24 | 51.69635 | 2.75452 | 34005 ft | 474 kts | 260° |
| 2026-05-04 20:25 | 51.68700 | 2.64960 | 34008 ft | 474 kts | 261° |
| 2026-05-04 20:25 | 51.67764 | 2.54503 | 34009 ft | 474 kts | 261° |
| 2026-05-04 20:26 | 51.66813 | 2.44015 | 34015 ft | 474 kts | 261° |
| 2026-05-04 20:26 | 51.65852 | 2.33546 | 34018 ft | 475 kts | 259° |
| 2026-05-04 20:27 | 51.64878 | 2.23047 | 34025 ft | 475 kts | 260° |
| 2026-05-04 20:27 | 51.63898 | 2.12583 | 34024 ft | 475 kts | 260° |
| 2026-05-04 20:28 | 51.62925 | 2.02112 | 34026 ft | 475 kts | 260° |
| 2026-05-04 20:28 | 51.61951 | 1.91623 | 34026 ft | 475 kts | 260° |
| 2026-05-04 20:29 | 51.60965 | 1.81119 | 34023 ft | 476 kts | 260° |
| 2026-05-04 20:29 | 51.59971 | 1.70640 | 34026 ft | 477 kts | 260° |
| 2026-05-04 20:30 | 51.59191 | 1.60114 | 34022 ft | 478 kts | 269° |
| 2026-05-04 20:30 | 51.59564 | 1.49441 | 34022 ft | 480 kts | 273° |
| 2026-05-04 20:31 | 51.60024 | 1.38830 | 34027 ft | 480 kts | 273° |
| 2026-05-04 20:31 | 51.60475 | 1.28124 | 34021 ft | 479 kts | 272° |
| 2026-05-04 20:32 | 51.60912 | 1.17500 | 34022 ft | 480 kts | 272° |
| 2026-05-04 20:32 | 51.61339 | 1.06835 | 34022 ft | 480 kts | 272° |
| 2026-05-04 20:33 | 51.61757 | 0.96143 | 34034 ft | 481 kts | 272° |
| 2026-05-04 20:33 | 51.62165 | 0.85454 | 34028 ft | 481 kts | 272° |
| 2026-05-04 20:34 | 51.62564 | 0.74743 | 34027 ft | 480 kts | 272° |
| 2026-05-04 20:34 | 51.62953 | 0.64009 | 34024 ft | 481 kts | 272° |
| 2026-05-04 20:35 | 51.63331 | 0.53339 | 34028 ft | 480 kts | 272° |
| 2026-05-04 20:35 | 51.63701 | 0.42601 | 34025 ft | 480 kts | 272° |
| 2026-05-04 20:36 | 51.64058 | 0.31940 | 34024 ft | 481 kts | 271° |
| 2026-05-04 20:36 | 51.64410 | 0.21259 | 34021 ft | 480 kts | 272° |
| 2026-05-04 20:37 | 51.65822 | 0.10837 | 33527 ft | 476 kts | 289° |
| 2026-05-04 20:37 | 51.67135 | 0.05919 | 32630 ft | 481 kts | 293° |
| 2026-05-04 20:37 | 51.68526 | 0.01030 | 31893 ft | 481 kts | 293° |
| 2026-05-04 20:38 | 51.69902 | -0.03812 | 31431 ft | 475 kts | 293° |
| 2026-05-04 20:38 | 51.71256 | -0.08601 | 30567 ft | 478 kts | 292° |
| 2026-05-04 20:38 | 51.72632 | -0.13492 | 29474 ft | 483 kts | 292° |
| 2026-05-04 20:38 | 51.74011 | -0.18410 | 28745 ft | 481 kts | 292° |
| 2026-05-04 20:39 | 51.75372 | -0.23279 | 28266 ft | 473 kts | 292° |
| 2026-05-04 20:39 | 51.76709 | -0.28075 | 27756 ft | 467 kts | 292° |
| 2026-05-04 20:39 | 51.78013 | -0.32765 | 27171 ft | 463 kts | 292° |
| 2026-05-04 20:39 | 51.79538 | -0.37302 | 26507 ft | 462 kts | 301° |
| 2026-05-04 20:40 | 51.81514 | -0.41403 | 25842 ft | 461 kts | 311° |
| 2026-05-04 20:40 | 51.83849 | -0.44881 | 25206 ft | 461 kts | 320° |
| 2026-05-04 20:40 | 51.86496 | -0.47758 | 24590 ft | 459 kts | 326° |
| 2026-05-04 20:40 | 51.89220 | -0.50409 | 23944 ft | 456 kts | 327° |
| 2026-05-04 20:41 | 51.91938 | -0.53043 | 22995 ft | 460 kts | 327° |
| 2026-05-04 20:41 | 51.94654 | -0.55681 | 22132 ft | 461 kts | 327° |
| 2026-05-04 20:41 | 51.97379 | -0.58333 | 21583 ft | 455 kts | 327° |
| 2026-05-04 20:41 | 52.00096 | -0.60984 | 21112 ft | 448 kts | 327° |
| 2026-05-04 20:42 | 52.02788 | -0.63615 | 20537 ft | 443 kts | 327° |
| 2026-05-04 20:42 | 52.05440 | -0.66213 | 19916 ft | 439 kts | 327° |
| 2026-05-04 20:42 | 52.08069 | -0.68793 | 19314 ft | 435 kts | 327° |
| 2026-05-04 20:42 | 52.10677 | -0.71357 | 18730 ft | 431 kts | 327° |
| 2026-05-04 20:43 | 52.13227 | -0.73868 | 18117 ft | 428 kts | 328° |
| 2026-05-04 20:43 | 52.15774 | -0.76379 | 17522 ft | 424 kts | 328° |
| 2026-05-04 20:43 | 52.18500 | -0.79070 | 16899 ft | 420 kts | 328° |
| 2026-05-04 20:43 | 52.21265 | -0.81805 | 16257 ft | 416 kts | 328° |
| 2026-05-04 20:44 | 52.23974 | -0.84498 | 15652 ft | 411 kts | 326° |
| 2026-05-04 20:44 | 52.26509 | -0.87580 | 15051 ft | 405 kts | 320° |
| 2026-05-04 20:44 | 52.28815 | -0.90622 | 14805 ft | 392 kts | 320° |
| 2026-05-04 20:44 | 52.30900 | -0.93383 | 14709 ft | 377 kts | 320° |
| 2026-05-04 20:45 | 52.32940 | -0.96087 | 14382 ft | 369 kts | 320° |
| 2026-05-04 20:45 | 52.34972 | -0.98784 | 13883 ft | 367 kts | 320° |
| 2026-05-04 20:45 | 52.37040 | -1.01532 | 13353 ft | 365 kts | 320° |
| 2026-05-04 20:45 | 52.39020 | -1.04164 | 12882 ft | 362 kts | 320° |
| 2026-05-04 20:46 | 52.40971 | -1.06762 | 12431 ft | 359 kts | 320° |
| 2026-05-04 20:46 | 52.42912 | -1.09349 | 11955 ft | 357 kts | 320° |
| 2026-05-04 20:46 | 52.44847 | -1.11932 | 11463 ft | 355 kts | 320° |
| 2026-05-04 20:46 | 52.46755 | -1.14480 | 10943 ft | 353 kts | 320° |
| 2026-05-04 20:47 | 52.48637 | -1.16997 | 10643 ft | 345 kts | 320° |
| 2026-05-04 20:47 | 52.50457 | -1.19433 | 10453 ft | 335 kts | 320° |
| 2026-05-04 20:47 | 52.52251 | -1.21838 | 10203 ft | 327 kts | 320° |
| 2026-05-04 20:47 | 52.54092 | -1.24307 | 9828 ft | 323 kts | 320° |
| 2026-05-04 20:48 | 52.55868 | -1.26693 | 9506 ft | 311 kts | 320° |
| 2026-05-04 20:48 | 52.57483 | -1.28865 | 9347 ft | 295 kts | 320° |
| 2026-05-04 20:48 | 52.59040 | -1.30959 | 9315 ft | 279 kts | 320° |
| 2026-05-04 20:48 | 52.60521 | -1.32954 | 9179 ft | 268 kts | 320° |
| 2026-05-04 20:49 | 52.61974 | -1.34914 | 8820 ft | 265 kts | 321° |
| 2026-05-04 20:49 | 52.63435 | -1.36886 | 8435 ft | 264 kts | 321° |
| 2026-05-04 20:49 | 52.64903 | -1.38870 | 8071 ft | 262 kts | 321° |
| 2026-05-04 20:49 | 52.66321 | -1.40787 | 7707 ft | 260 kts | 321° |
| 2026-05-04 20:50 | 52.67732 | -1.42696 | 7345 ft | 258 kts | 321° |
| 2026-05-04 20:50 | 52.69107 | -1.44559 | 6987 ft | 256 kts | 321° |
| 2026-05-04 20:50 | 52.70479 | -1.46418 | 6646 ft | 253 kts | 321° |
| 2026-05-04 20:50 | 52.71829 | -1.48250 | 6298 ft | 252 kts | 321° |
| 2026-05-04 20:51 | 52.73188 | -1.50095 | 5896 ft | 251 kts | 321° |
| 2026-05-04 20:51 | 52.74515 | -1.51898 | 5421 ft | 250 kts | 321° |
| 2026-05-04 20:51 | 52.75850 | -1.53713 | 4959 ft | 249 kts | 321° |
| 2026-05-04 20:51 | 52.77181 | -1.55525 | 4501 ft | 247 kts | 321° |
| 2026-05-04 20:52 | 52.78531 | -1.57235 | 4074 ft | 243 kts | 334° |
| 2026-05-04 20:52 | 52.80108 | -1.57957 | 3834 ft | 231 kts | 360° |
| 2026-05-04 20:52 | 52.81642 | -1.57492 | 3490 ft | 224 kts | 25° |
| 2026-05-04 20:52 | 52.82925 | -1.56006 | 3026 ft | 225 kts | 50° |
| 2026-05-04 20:53 | 52.83549 | -1.53492 | 2624 ft | 221 kts | 87° |
| 2026-05-04 20:53 | 52.83159 | -1.50927 | 2290 ft | 203 kts | 117° |
| 2026-05-04 20:53 | 52.82668 | -1.48767 | 2012 ft | 187 kts | 89° |
| 2026-05-04 20:53 | 52.82876 | -1.46697 | 1795 ft | 171 kts | 84° |
| 2026-05-04 20:54 | 52.82856 | -1.44712 | 1569 ft | 156 kts | 87° |
| 2026-05-04 20:54 | 52.82912 | -1.42945 | 1368 ft | 152 kts | 86° |
| 2026-05-04 20:54 | 52.82937 | -1.41219 | 1159 ft | 149 kts | 86° |
| 2026-05-04 20:54 | 52.82975 | -1.39511 | 946 ft | 147 kts | 88° |
| 2026-05-04 20:55 | 52.83006 | -1.37827 | 742 ft | 146 kts | 87° |
| 2026-05-04 20:55 | 52.83036 | -1.36159 | 539 ft | 146 kts | 88° |
| 2026-05-04 20:55 | 52.83068 | -1.34468 | 340 ft | 146 kts | 89° |
| 2026-05-04 20:55 | 52.83095 | -1.32967 | 305 ft | 110 kts | 88° |
| 2026-05-04 20:56 | 52.83114 | -1.31966 | 297 ft | 65 kts | 88° |
| 2026-05-04 20:56 | 52.83123 | -1.31465 | 293 ft | 21 kts | 89° |
| 2026-05-04 20:56 | 52.83103 | -1.31321 | 293 ft | 11 kts | 155° |
| 2026-05-04 20:56 | 52.83022 | -1.31316 | 293 ft | 11 kts | 181° |
| 2026-05-04 20:57 | 52.82961 | -1.31373 | 292 ft | 12 kts | 257° |
| 2026-05-04 20:57 | 52.82954 | -1.31550 | 289 ft | 16 kts | 268° |
| 2026-05-04 20:57 | 52.82951 | -1.31735 | 289 ft | 15 kts | 269° |
| 2026-05-04 20:57 | 52.82951 | -1.31905 | 291 ft | 13 kts | 270° |
| 2026-05-04 20:58 | 52.82949 | -1.32045 | 292 ft | 13 kts | 264° |
| 2026-05-04 20:58 | 52.82942 | -1.32224 | 295 ft | 17 kts | 268° |
| 2026-05-04 20:58 | 52.82939 | -1.32412 | 297 ft | 14 kts | 269° |
| 2026-05-04 20:58 | 52.82938 | -1.32569 | 298 ft | 13 kts | 270° |
| 2026-05-04 20:59 | 52.82934 | -1.32723 | 300 ft | 13 kts | 266° |
| 2026-05-04 20:59 | 52.82929 | -1.32887 | 301 ft | 15 kts | 269° |
| 2026-05-04 20:59 | 52.82926 | -1.33070 | 303 ft | 15 kts | 268° |
| 2026-05-04 20:59 | 52.82922 | -1.33252 | 307 ft | 15 kts | 269° |
| 2026-05-04 21:00 | 52.82921 | -1.33431 | 310 ft | 15 kts | 269° |
| 2026-05-04 21:00 | 52.82919 | -1.33598 | 312 ft | 13 kts | 270° |
| 2026-05-04 21:00 | 52.82914 | -1.33768 | 312 ft | 17 kts | 267° |
| 2026-05-04 21:00 | 52.82910 | -1.33992 | 312 ft | 21 kts | 269° |
| 2026-05-04 21:01 | 52.82904 | -1.34241 | 313 ft | 20 kts | 268° |
| 2026-05-04 21:01 | 52.82906 | -1.34457 | 315 ft | 15 kts | 268° |
| 2026-05-04 21:01 | 52.82905 | -1.34628 | 317 ft | 14 kts | 270° |
| 2026-05-04 21:01 | 52.82902 | -1.34796 | 318 ft | 15 kts | 269° |
| 2026-05-04 21:02 | 52.82899 | -1.34991 | 315 ft | 18 kts | 269° |
| 2026-05-04 21:02 | 52.82894 | -1.35187 | 315 ft | 12 kts | 268° |
| 2026-05-04 21:02 | 52.82837 | -1.35264 | 313 ft | 12 kts | 191° |
| 2026-05-04 21:02 | 52.82756 | -1.35266 | 312 ft | 6 kts | 179° |
| 2026-05-04 21:03 | 52.82744 | -1.35266 | 311 ft | 0 kts | 179° |